Time,TemperatureF,DewpointF,PressureIn,WindDirection,WindDirectionDegrees,WindSpeedMPH,WindSpeedGustMPH,Humidity,HourlyPrecipIn,Conditions,Clouds,dailyrainin,SoftwareType,DateUTC
2013-01-25 00:01:00,16.3,1.8,30.31,SSW,202,0.0,0.0,52,0.00,CLR,CLR,0.00,WeatherDisplay:10.37,2013-01-25 05:01:00,
2013-01-25 00:02:00,16.2,1.6,30.31,SSW,202,0.0,0.0,52,0.00,CLR,CLR,0.00,WeatherDisplay:10.37,2013-01-25 05:02:00,
2013-01-25 00:03:00,16.2,1.6,30.31,SSW,202,0.0,0.0,52,0.00,CLR,CLR,0.00,WeatherDisplay:10.37,2013-01-25 05:03:00,
2013-01-25 00:04:00,16.2,2.0,30.31,SSW,202,0.0,0.0,53,0.00,CLR,CLR,0.00,WeatherDisplay:10.37,2013-01-25 05:04:00,
2013-01-25 00:09:00,16.0,1.8,30.31,SSW,202,0.0,0.0,53,0.00,CLR,CLR,0.00,WeatherDisplay:10.37,2013-01-25 05:09:00,
2013-01-25 00:14:00,16.0,1.4,30.30,West,270,0.0,0.0,52,0.00,CLR,CLR,0.00,WeatherDisplay:10.37,2013-01-25 05:14:00,
2013-01-25 00:19:00,16.0,1.8,30.31,SW,225,0.0,0.0,53,0.00,CLR,CLR,0.00,WeatherDisplay:10.37,2013-01-25 05:19:00,
2013-01-25 00:24:00,16.0,1.8,30.30,WSW,248,0.0,0.0,53,0.00,CLR,CLR,0.00,WeatherDisplay:10.37,2013-01-25 05:24:00,
2013-01-25 00:30:00,16.2,2.0,30.30,West,270,0.0,0.0,53,0.00,CLR,CLR,0.00,WeatherDisplay:10.37,2013-01-25 05:30:00,
2013-01-25 00:35:00,16.2,2.0,30.31,WSW,248,0.0,0.0,53,0.00,CLR,CLR,0.00,WeatherDisplay:10.37,2013-01-25 05:35:00,
2013-01-25 00:40:00,16.3,2.2,30.31,SW,225,0.0,0.0,53,0.00,CLR,CLR,0.00,WeatherDisplay:10.37,2013-01-25 05:40:00,
2013-01-25 00:45:00,16.5,2.3,30.31,WSW,248,1.2,0.0,53,0.00,CLR,CLR,0.00,WeatherDisplay:10.37,2013-01-25 05:45:00,
2013-01-25 00:51:00,16.7,2.5,30.31,WSW,248,0.0,0.0,53,0.00,CLR,CLR,0.00,WeatherDisplay:10.37,2013-01-25 05:51:00,
2013-01-25 00:56:00,16.7,2.5,30.31,WSW,248,1.3,1.3,53,0.00,CLR,CLR,0.00,WeatherDisplay:10.37,2013-01-25 05:56:00,
2013-01-25 01:01:00,16.7,2.5,30.31,SW,225,1.2,1.2,53,0.00,CLR,CLR,0.00,WeatherDisplay:10.37,2013-01-25 06:01:00,
2013-01-25 01:06:00,16.9,2.3,30.30,West,270,4.6,4.6,52,0.00,CLR,CLR,0.00,WeatherDisplay:10.37,2013-01-25 06:06:00,
2013-01-25 01:11:00,17.2,2.6,30.29,NW,315,2.3,2.3,52,0.00,CLR,CLR,0.00,WeatherDisplay:10.37,2013-01-25 06:11:00,
2013-01-25 01:17:00,17.4,2.8,30.30,North,0,0.0,0.0,52,0.00,CLR,CLR,0.00,WeatherDisplay:10.37,2013-01-25 06:17:00,
2013-01-25 01:22:00,17.4,2.3,30.30,WSW,248,0.0,0.0,51,0.00,CLR,CLR,0.00,WeatherDisplay:10.37,2013-01-25 06:22:00,
2013-01-25 01:27:00,17.4,2.8,30.29,West,270,0.0,0.0,52,0.00,CLR,CLR,0.00,WeatherDisplay:10.37,2013-01-25 06:27:00,
2013-01-25 01:32:00,17.4,2.8,30.29,SW,225,2.3,2.3,52,0.00,CLR,CLR,0.00,WeatherDisplay:10.37,2013-01-25 06:32:00,
2013-01-25 01:37:00,17.2,2.6,30.29,SSW,202,3.5,0.0,52,0.00,CLR,CLR,0.00,WeatherDisplay:10.37,2013-01-25 06:37:00,
2013-01-25 01:42:00,17.2,2.6,30.29,SW,225,3.5,0.0,52,0.00,CLR,CLR,0.00,WeatherDisplay:10.37,2013-01-25 06:42:00,
2013-01-25 01:48:00,17.2,2.6,30.30,SSW,202,4.6,0.0,52,0.00,CLR,CLR,0.00,WeatherDisplay:10.37,2013-01-25 06:48:00,
2013-01-25 01:53:00,17.2,3.0,30.31,West,270,1.2,1.2,53,0.00,CLR,CLR,0.00,WeatherDisplay:10.37,2013-01-25 06:53:00,
2013-01-25 01:58:00,16.9,2.7,30.29,WNW,292,0.0,0.0,53,0.00,CLR,CLR,0.00,WeatherDisplay:10.37,2013-01-25 06:58:00,
2013-01-25 02:03:00,16.9,2.3,30.29,West,270,0.0,0.0,52,0.00,CLR,CLR,0.00,WeatherDisplay:10.37,2013-01-25 07:03:00,
2013-01-25 02:08:00,16.9,2.7,30.29,West,270,0.0,0.0,53,0.00,CLR,CLR,0.00,WeatherDisplay:10.37,2013-01-25 07:08:00,
2013-01-25 02:14:00,16.9,2.7,30.29,West,270,0.0,0.0,53,0.00,CLR,CLR,0.00,WeatherDisplay:10.37,2013-01-25 07:14:00,
2013-01-25 02:19:00,16.9,2.7,30.29,WSW,248,0.0,0.0,53,0.00,CLR,CLR,0.00,WeatherDisplay:10.37,2013-01-25 07:19:00,
2013-01-25 02:24:00,16.9,2.7,30.29,WSW,248,0.0,0.0,53,0.00,CLR,CLR,0.00,WeatherDisplay:10.37,2013-01-25 07:24:00,
2013-01-25 02:29:00,16.9,2.7,30.29,WSW,248,0.0,0.0,53,0.00,CLR,CLR,0.00,WeatherDisplay:10.37,2013-01-25 07:29:00,
2013-01-25 02:35:00,16.9,3.1,30.29,WSW,248,0.0,0.0,54,0.00,CLR,CLR,0.00,WeatherDisplay:10.37,2013-01-25 07:35:00,
2013-01-25 02:40:00,16.9,3.1,30.29,WSW,248,0.0,0.0,54,0.00,CLR,CLR,0.00,WeatherDisplay:10.37,2013-01-25 07:40:00,
2013-01-25 02:45:00,16.9,3.1,30.29,SW,225,0.0,0.0,54,0.00,CLR,CLR,0.00,WeatherDisplay:10.37,2013-01-25 07:45:00,
2013-01-25 02:50:00,16.9,3.1,30.29,West,270,0.0,0.0,54,0.00,CLR,CLR,0.00,WeatherDisplay:10.37,2013-01-25 07:50:00,
2013-01-25 02:55:00,16.9,3.1,30.29,WNW,292,0.0,0.0,54,0.00,CLR,CLR,0.00,WeatherDisplay:10.37,2013-01-25 07:55:00,
2013-01-25 03:01:00,16.9,2.7,30.29,WSW,248,0.0,0.0,53,0.00,CLR,CLR,0.00,WeatherDisplay:10.37,2013-01-25 08:01:00,
2013-01-25 03:06:00,16.7,2.9,30.29,WNW,292,0.0,0.0,54,0.00,CLR,CLR,0.00,WeatherDisplay:10.37,2013-01-25 08:06:00,
2013-01-25 03:11:00,16.5,2.7,30.29,WNW,292,0.0,0.0,54,0.00,CLR,CLR,0.00,WeatherDisplay:10.37,2013-01-25 08:11:00,
2013-01-25 03:16:00,16.3,2.6,30.29,WSW,248,0.0,0.0,54,0.00,CLR,CLR,0.00,WeatherDisplay:10.37,2013-01-25 08:16:00,
2013-01-25 03:21:00,16.2,2.4,30.28,WSW,248,0.0,0.0,54,0.00,CLR,CLR,0.00,WeatherDisplay:10.37,2013-01-25 08:21:00,
2013-01-25 03:27:00,16.0,2.6,30.29,SSW,202,0.0,0.0,55,0.00,CLR,CLR,0.00,WeatherDisplay:10.37,2013-01-25 08:27:00,
2013-01-25 03:32:00,16.0,2.6,30.29,SSW,202,0.0,0.0,55,0.00,CLR,CLR,0.00,WeatherDisplay:10.37,2013-01-25 08:32:00,
2013-01-25 03:37:00,16.0,3.4,30.28,SSW,202,0.0,0.0,57,0.00,CLR,CLR,0.00,WeatherDisplay:10.37,2013-01-25 08:37:00,
2013-01-25 03:42:00,15.8,3.2,30.27,WNW,292,0.0,0.0,57,0.00,CLR,CLR,0.00,WeatherDisplay:10.37,2013-01-25 08:42:00,
2013-01-25 03:47:00,15.6,3.1,30.28,WNW,292,0.0,0.0,57,0.00,CLR,CLR,0.00,WeatherDisplay:10.37,2013-01-25 08:47:00,
2013-01-25 03:52:00,15.3,2.7,30.28,WSW,248,0.0,0.0,57,0.00,CLR,CLR,0.00,WeatherDisplay:10.37,2013-01-25 08:52:00,
2013-01-25 03:58:00,15.3,3.1,30.28,WSW,248,0.0,0.0,58,0.00,CLR,CLR,0.00,WeatherDisplay:10.37,2013-01-25 08:58:00,
2013-01-25 04:03:00,15.4,3.6,30.28,WSW,248,0.0,0.0,59,0.00,CLR,CLR,0.00,WeatherDisplay:10.37,2013-01-25 09:03:00,
2013-01-25 04:08:00,15.4,3.6,30.28,WSW,248,0.0,0.0,59,0.00,CLR,CLR,0.00,WeatherDisplay:10.37,2013-01-25 09:08:00,
2013-01-25 04:13:00,15.6,3.8,30.27,WSW,248,0.0,0.0,59,0.00,CLR,CLR,0.00,WeatherDisplay:10.37,2013-01-25 09:13:00,
2013-01-25 04:19:00,15.6,3.8,30.27,WSW,248,0.0,0.0,59,0.00,CLR,CLR,0.00,WeatherDisplay:10.37,2013-01-25 09:19:00,
2013-01-25 04:24:00,15.8,4.0,30.26,West,270,0.0,0.0,59,0.00,CLR,CLR,0.00,WeatherDisplay:10.37,2013-01-25 09:24:00,
2013-01-25 04:29:00,16.0,4.2,30.27,WNW,292,0.0,0.0,59,0.00,CLR,CLR,0.00,WeatherDisplay:10.37,2013-01-25 09:29:00,
2013-01-25 04:34:00,16.2,4.7,30.27,SE,135,0.0,0.0,60,0.00,CLR,CLR,0.00,WeatherDisplay:10.37,2013-01-25 09:34:00,
2013-01-25 04:39:00,16.3,4.9,30.27,SE,135,0.0,0.0,60,0.00,CLR,CLR,0.00,WeatherDisplay:10.37,2013-01-25 09:39:00,
2013-01-25 04:45:00,16.5,5.0,30.26,SE,135,0.0,0.0,60,0.00,CLR,CLR,0.00,WeatherDisplay:10.37,2013-01-25 09:45:00,
2013-01-25 04:50:00,16.5,4.7,30.27,SE,135,0.0,0.0,59,0.00,CLR,CLR,0.00,WeatherDisplay:10.37,2013-01-25 09:50:00,
2013-01-25 04:55:00,16.5,4.7,30.26,SW,225,0.0,0.0,59,0.00,CLR,CLR,0.00,WeatherDisplay:10.37,2013-01-25 09:55:00,
2013-01-25 05:00:00,16.5,5.0,30.26,SW,225,0.0,0.0,60,0.00,CLR,CLR,0.00,WeatherDisplay:10.37,2013-01-25 10:00:00,
2013-01-25 05:05:00,16.7,5.2,30.27,SSW,202,0.0,0.0,60,0.00,CLR,CLR,0.00,WeatherDisplay:10.37,2013-01-25 10:05:00,
2013-01-25 05:10:00,16.7,5.2,30.27,SW,225,0.0,0.0,60,0.00,CLR,CLR,0.00,WeatherDisplay:10.37,2013-01-25 10:10:00,
2013-01-25 05:15:00,16.9,5.4,30.25,WSW,248,0.0,0.0,60,0.00,CLR,CLR,0.00,WeatherDisplay:10.37,2013-01-25 10:15:00,
2013-01-25 05:20:00,16.9,5.4,30.25,WSW,248,0.0,0.0,60,0.00,CLR,CLR,0.00,WeatherDisplay:10.37,2013-01-25 10:20:00,
2013-01-25 05:25:00,16.9,5.4,30.25,WSW,248,0.0,0.0,60,0.00,CLR,CLR,0.00,WeatherDisplay:10.37,2013-01-25 10:25:00,
2013-01-25 05:31:00,16.9,5.7,30.26,WSW,248,0.0,0.0,61,0.00,CLR,CLR,0.00,WeatherDisplay:10.37,2013-01-25 10:31:00,
2013-01-25 05:36:00,16.9,5.7,30.26,WSW,248,0.0,0.0,61,0.00,CLR,CLR,0.00,WeatherDisplay:10.37,2013-01-25 10:36:00,
2013-01-25 05:41:00,16.9,5.7,30.25,WSW,248,0.0,0.0,61,0.00,CLR,CLR,0.00,WeatherDisplay:10.37,2013-01-25 10:41:00,
2013-01-25 05:46:00,17.2,6.1,30.25,WSW,248,0.0,0.0,61,0.00,CLR,CLR,0.00,WeatherDisplay:10.37,2013-01-25 10:46:00,
2013-01-25 05:51:00,17.2,6.1,30.25,WSW,248,0.0,0.0,61,0.00,CLR,CLR,0.00,WeatherDisplay:10.37,2013-01-25 10:51:00,
2013-01-25 05:57:00,17.2,6.1,30.25,WSW,248,0.0,0.0,61,0.00,CLR,CLR,0.00,WeatherDisplay:10.37,2013-01-25 10:57:00,
2013-01-25 06:02:00,17.2,6.1,30.24,NW,315,0.0,0.0,61,0.00,CLR,CLR,0.00,WeatherDisplay:10.37,2013-01-25 11:02:00,
2013-01-25 06:07:00,17.2,5.7,30.24,NW,315,0.0,0.0,60,0.00,CLR,CLR,0.00,WeatherDisplay:10.37,2013-01-25 11:07:00,
2013-01-25 06:12:00,16.9,5.0,30.23,WNW,292,0.0,0.0,59,0.00,CLR,CLR,0.00,WeatherDisplay:10.37,2013-01-25 11:12:00,
2013-01-25 06:17:00,16.9,5.0,30.23,WNW,292,0.0,0.0,59,0.00,CLR,CLR,0.00,WeatherDisplay:10.37,2013-01-25 11:17:00,
2013-01-25 06:22:00,16.9,5.0,30.23,WNW,292,0.0,0.0,59,0.00,CLR,CLR,0.00,WeatherDisplay:10.37,2013-01-25 11:22:00,
2013-01-25 06:27:00,16.9,5.0,30.24,West,270,0.0,0.0,59,0.00,CLR,CLR,0.00,WeatherDisplay:10.37,2013-01-25 11:27:00,
2013-01-25 06:32:00,17.2,5.7,30.23,West,270,0.0,0.0,60,0.00,CLR,CLR,0.00,WeatherDisplay:10.37,2013-01-25 11:32:00,
2013-01-25 06:38:00,17.2,6.1,30.24,South,180,0.0,0.0,61,0.00,CLR,CLR,0.00,WeatherDisplay:10.37,2013-01-25 11:38:00,
2013-01-25 06:43:00,17.4,5.9,30.24,SSW,202,0.0,0.0,60,0.00,CLR,CLR,0.00,WeatherDisplay:10.37,2013-01-25 11:43:00,
2013-01-25 06:48:00,17.4,5.9,30.24,SSW,202,0.0,0.0,60,0.00,CLR,CLR,0.00,WeatherDisplay:10.37,2013-01-25 11:48:00,
2013-01-25 06:53:00,17.4,5.9,30.23,SSW,202,0.0,0.0,60,0.00,CLR,CLR,0.00,WeatherDisplay:10.37,2013-01-25 11:53:00,
2013-01-25 06:58:00,17.6,6.1,30.23,SSW,202,0.0,0.0,60,0.00,CLR,CLR,0.00,WeatherDisplay:10.37,2013-01-25 11:58:00,
2013-01-25 07:04:00,17.8,6.2,30.23,SSW,202,0.0,0.0,60,0.00,CLR,CLR,0.00,WeatherDisplay:10.37,2013-01-25 12:04:00,
2013-01-25 07:09:00,17.8,5.9,30.22,SSW,202,0.0,0.0,59,0.00,CLR,CLR,0.00,WeatherDisplay:10.37,2013-01-25 12:09:00,
2013-01-25 07:14:00,17.8,6.2,30.22,SSW,202,0.0,0.0,60,0.00,CLR,CLR,0.00,WeatherDisplay:10.37,2013-01-25 12:14:00,
2013-01-25 07:19:00,17.8,6.2,30.22,SSW,202,0.0,0.0,60,0.00,CLR,CLR,0.00,WeatherDisplay:10.37,2013-01-25 12:19:00,
2013-01-25 07:24:00,17.8,6.2,30.22,SSW,202,0.0,0.0,60,0.00,CLR,CLR,0.00,WeatherDisplay:10.37,2013-01-25 12:24:00,
2013-01-25 07:30:00,17.8,6.2,30.22,SSW,202,0.0,0.0,60,0.00,CLR,CLR,0.00,WeatherDisplay:10.37,2013-01-25 12:30:00,
2013-01-25 07:35:00,17.8,5.9,30.23,SSW,202,0.0,0.0,59,0.00,CLR,CLR,0.00,WeatherDisplay:10.37,2013-01-25 12:35:00,
2013-01-25 07:40:00,17.8,6.2,30.22,SSW,202,0.0,0.0,60,0.00,CLR,CLR,0.00,WeatherDisplay:10.37,2013-01-25 12:40:00,
2013-01-25 07:45:00,17.8,6.2,30.23,SSW,202,0.0,0.0,60,0.00,CLR,CLR,0.00,WeatherDisplay:10.37,2013-01-25 12:45:00,
2013-01-25 07:50:00,17.8,6.6,30.23,SSW,202,0.0,0.0,61,0.00,CLR,CLR,0.00,WeatherDisplay:10.37,2013-01-25 12:50:00,
2013-01-25 07:56:00,17.8,6.6,30.22,SSW,202,0.0,0.0,61,0.00,CLR,CLR,0.00,WeatherDisplay:10.37,2013-01-25 12:56:00,
2013-01-25 08:01:00,17.8,6.6,30.22,SSW,202,0.0,0.0,61,0.00,CLR,CLR,0.00,WeatherDisplay:10.37,2013-01-25 13:01:00,
2013-01-25 08:06:00,17.8,6.6,30.22,ESE,112,0.0,0.0,61,0.00,CLR,CLR,0.00,WeatherDisplay:10.37,2013-01-25 13:06:00,
2013-01-25 08:12:00,18.1,6.9,30.21,SSE,158,0.0,0.0,61,0.00,CLR,CLR,0.00,WeatherDisplay:10.37,2013-01-25 13:12:00,
2013-01-25 08:17:00,18.3,7.1,30.21,SSE,158,0.0,0.0,61,0.00,CLR,CLR,0.00,WeatherDisplay:10.37,2013-01-25 13:17:00,
2013-01-25 08:22:00,18.5,7.3,30.21,SE,135,0.0,0.0,61,0.00,CLR,CLR,0.00,WeatherDisplay:10.37,2013-01-25 13:22:00,
2013-01-25 08:27:00,18.7,7.4,30.20,NNE,22,0.0,0.0,61,0.00,CLR,CLR,0.00,WeatherDisplay:10.37,2013-01-25 13:27:00,
2013-01-25 08:32:00,18.7,7.1,30.20,NNE,22,0.0,0.0,60,0.00,CLR,CLR,0.00,WeatherDisplay:10.37,2013-01-25 13:32:00,
2013-01-25 08:37:00,18.7,6.7,30.20,NE,45,0.0,0.0,59,0.00,CLR,CLR,0.00,WeatherDisplay:10.37,2013-01-25 13:37:00,
2013-01-25 08:43:00,18.7,7.1,30.19,SE,135,0.0,0.0,60,0.00,CLR,CLR,0.00,WeatherDisplay:10.37,2013-01-25 13:43:00,
2013-01-25 08:48:00,18.9,7.6,30.19,SE,135,0.0,0.0,61,0.00,CLR,CLR,0.00,WeatherDisplay:10.37,2013-01-25 13:48:00,
2013-01-25 08:53:00,19.2,7.2,30.19,NNE,22,0.0,0.0,59,0.00,CLR,CLR,0.00,WeatherDisplay:10.37,2013-01-25 13:53:00,
2013-01-25 08:58:00,19.2,7.2,30.18,SE,135,0.0,0.0,59,0.00,CLR,CLR,0.00,WeatherDisplay:10.37,2013-01-25 13:58:00,
2013-01-25 09:03:00,19.2,7.2,30.17,ENE,68,1.2,0.0,59,0.00,CLR,CLR,0.00,WeatherDisplay:10.37,2013-01-25 14:03:00,
2013-01-25 09:08:00,19.2,6.8,30.17,NE,45,0.0,0.0,58,0.00,CLR,CLR,0.00,WeatherDisplay:10.37,2013-01-25 14:08:00,
2013-01-25 09:14:00,19.2,6.8,30.17,North,0,0.0,0.0,58,0.00,CLR,CLR,0.00,WeatherDisplay:10.37,2013-01-25 14:14:00,
2013-01-25 09:19:00,19.2,7.2,30.16,ESE,112,3.5,3.5,59,0.00,CLR,CLR,0.00,WeatherDisplay:10.37,2013-01-25 14:19:00,
2013-01-25 09:24:00,19.6,7.6,30.16,NNE,22,0.0,0.0,59,0.00,CLR,CLR,0.00,WeatherDisplay:10.37,2013-01-25 14:24:00,
2013-01-25 09:29:00,19.6,7.2,30.16,ENE,68,0.0,0.0,58,0.00,CLR,CLR,0.00,WeatherDisplay:10.37,2013-01-25 14:29:00,
2013-01-25 09:34:00,19.6,6.8,30.16,NNE,22,1.2,0.0,57,0.00,CLR,CLR,0.00,WeatherDisplay:10.37,2013-01-25 14:34:00,
2013-01-25 09:40:00,19.6,6.8,30.16,East,90,0.0,0.0,57,0.00,CLR,CLR,0.00,WeatherDisplay:10.37,2013-01-25 14:40:00,
2013-01-25 09:45:00,19.8,6.6,30.17,East,90,0.0,0.0,56,0.00,CLR,CLR,0.00,WeatherDisplay:10.37,2013-01-25 14:45:00,
2013-01-25 09:50:00,19.9,7.1,30.16,ESE,112,0.0,0.0,57,0.00,CLR,CLR,0.00,WeatherDisplay:10.37,2013-01-25 14:50:00,
2013-01-25 09:55:00,20.3,7.5,30.17,ESE,112,0.0,0.0,57,0.00,CLR,CLR,0.00,WeatherDisplay:10.37,2013-01-25 14:55:00,
2013-01-25 10:00:00,20.7,8.2,30.16,ESE,112,2.3,0.0,58,0.00,CLR,CLR,0.00,WeatherDisplay:10.37,2013-01-25 15:00:00,
2013-01-25 10:06:00,21.0,8.2,30.16,SE,135,2.3,2.3,57,0.00,CLR,CLR,0.00,WeatherDisplay:10.37,2013-01-25 15:06:00,
2013-01-25 10:11:00,21.2,8.3,30.16,SE,135,0.0,0.0,57,0.00,CLR,CLR,0.00,WeatherDisplay:10.37,2013-01-25 15:11:00,
2013-01-25 10:16:00,21.4,8.5,30.17,SE,135,0.0,0.0,57,0.00,CLR,CLR,0.00,WeatherDisplay:10.37,2013-01-25 15:16:00,
2013-01-25 10:21:00,21.6,8.3,30.17,NNW,338,1.3,1.3,56,0.00,CLR,CLR,0.00,WeatherDisplay:10.37,2013-01-25 15:21:00,
2013-01-25 10:27:00,21.4,7.7,30.16,NNE,22,2.3,2.3,55,0.00,CLR,CLR,0.00,WeatherDisplay:10.37,2013-01-25 15:27:00,
2013-01-25 10:32:00,21.0,7.4,30.16,East,90,1.2,0.0,55,0.00,CLR,CLR,0.00,WeatherDisplay:10.37,2013-01-25 15:32:00,
2013-01-25 10:37:00,21.4,7.7,30.15,ESE,112,1.2,1.2,55,0.00,CLR,CLR,0.00,WeatherDisplay:10.37,2013-01-25 15:37:00,
2013-01-25 10:42:00,21.4,7.7,30.16,ESE,112,2.0,2.0,55,0.00,CLR,CLR,0.00,WeatherDisplay:10.37,2013-01-25 15:42:00,
2013-01-25 10:47:00,21.4,7.7,30.15,ESE,112,2.9,2.9,55,0.00,CLR,CLR,0.00,WeatherDisplay:10.37,2013-01-25 15:47:00,
2013-01-25 10:53:00,21.6,7.9,30.15,ESE,112,2.5,2.5,55,0.00,CLR,CLR,0.00,WeatherDisplay:10.37,2013-01-25 15:53:00,
2013-01-25 10:58:00,21.7,8.0,30.15,ESE,112,3.5,3.5,55,0.00,CLR,CLR,0.00,WeatherDisplay:10.37,2013-01-25 15:58:00,
2013-01-25 11:03:00,21.7,8.0,30.16,SE,135,0.0,0.0,55,0.00,CLR,CLR,0.00,WeatherDisplay:10.37,2013-01-25 16:03:00,
2013-01-25 11:08:00,21.9,8.2,30.15,NE,45,0.0,0.0,55,0.00,CLR,CLR,0.00,WeatherDisplay:10.37,2013-01-25 16:08:00,
2013-01-25 11:13:00,22.1,8.0,30.15,ENE,68,0.0,0.0,54,0.00,CLR,CLR,0.00,WeatherDisplay:10.37,2013-01-25 16:13:00,
2013-01-25 11:18:00,22.1,8.0,30.14,NNE,22,2.3,2.4,54,0.00,CLR,CLR,0.00,WeatherDisplay:10.37,2013-01-25 16:18:00,
2013-01-25 11:24:00,22.1,7.6,30.14,NNE,22,1.3,1.3,53,0.00,CLR,CLR,0.00,WeatherDisplay:10.37,2013-01-25 16:24:00,
2013-01-25 11:29:00,22.1,7.6,30.13,North,0,0.0,0.0,53,0.00,CLR,CLR,0.00,WeatherDisplay:10.37,2013-01-25 16:29:00,
2013-01-25 11:34:00,22.1,7.6,30.11,ENE,68,3.5,3.5,53,0.00,CLR,CLR,0.00,WeatherDisplay:10.37,2013-01-25 16:34:00,
2013-01-25 11:39:00,22.1,7.1,30.11,East,90,0.9,0.9,52,0.00,CLR,CLR,0.00,WeatherDisplay:10.37,2013-01-25 16:39:00,
2013-01-25 11:45:00,22.1,7.1,30.10,ESE,112,2.5,2.5,52,0.00,CLR,CLR,0.00,WeatherDisplay:10.37,2013-01-25 16:45:00,
2013-01-25 11:50:00,22.1,7.6,30.10,SE,135,2.3,2.3,53,0.00,CLR,CLR,0.00,WeatherDisplay:10.37,2013-01-25 16:50:00,
2013-01-25 11:55:00,22.1,7.6,30.09,NNE,22,2.5,2.5,53,0.00,CLR,CLR,0.00,WeatherDisplay:10.37,2013-01-25 16:55:00,
2013-01-25 12:00:00,21.9,7.8,30.09,SSE,158,5.8,5.8,54,0.00,CLR,CLR,0.00,WeatherDisplay:10.37,2013-01-25 17:00:00,
2013-01-25 12:06:00,21.9,8.6,30.08,SE,135,10.7,10.7,56,0.00,CLR,CLR,0.00,WeatherDisplay:10.37,2013-01-25 17:06:00,
2013-01-25 12:11:00,21.6,9.4,30.08,SE,135,6.9,6.9,59,0.00,CLR,CLR,0.00,WeatherDisplay:10.37,2013-01-25 17:11:00,
2013-01-25 12:16:00,21.4,9.6,30.07,SE,135,4.6,4.6,60,0.00,CLR,CLR,0.00,WeatherDisplay:10.37,2013-01-25 17:16:00,
2013-01-25 12:21:00,21.6,10.2,30.06,SE,135,6.7,6.7,61,0.00,CLR,CLR,0.00,WeatherDisplay:10.37,2013-01-25 17:21:00,
2013-01-25 12:26:00,21.6,10.5,30.06,NNE,22,3.5,3.5,62,0.00,CLR,CLR,0.00,WeatherDisplay:10.37,2013-01-25 17:26:00,
2013-01-25 12:31:00,21.9,10.9,30.06,ENE,68,4.6,4.6,62,0.00,CLR,CLR,0.00,WeatherDisplay:10.37,2013-01-25 17:31:00,
2013-01-25 12:36:00,21.9,10.9,30.04,East,90,2.3,2.3,62,0.00,CLR,CLR,0.00,WeatherDisplay:10.37,2013-01-25 17:36:00,
2013-01-25 12:42:00,21.7,10.7,30.03,East,90,5.8,5.8,62,0.00,CLR,CLR,0.00,WeatherDisplay:10.37,2013-01-25 17:42:00,
2013-01-25 12:47:00,21.7,10.7,30.03,SE,135,1.2,0.0,62,0.00,CLR,CLR,0.00,WeatherDisplay:10.37,2013-01-25 17:47:00,
2013-01-25 12:52:00,21.7,10.3,30.02,SE,135,0.0,0.0,61,0.00,CLR,CLR,0.00,WeatherDisplay:10.37,2013-01-25 17:52:00,
2013-01-25 12:57:00,21.7,10.3,30.02,ESE,112,2.3,0.0,61,0.00,CLR,CLR,0.00,WeatherDisplay:10.37,2013-01-25 17:57:00,
2013-01-25 13:02:00,21.7,10.3,30.01,North,0,2.3,2.3,61,0.00,CLR,CLR,0.00,WeatherDisplay:10.37,2013-01-25 18:02:00,
2013-01-25 13:07:00,21.9,10.5,30.00,ESE,112,3.6,3.6,61,0.00,CLR,CLR,0.00,WeatherDisplay:10.37,2013-01-25 18:07:00,
2013-01-25 13:12:00,21.9,10.5,30.00,NNE,22,2.3,2.3,61,0.00,CLR,CLR,0.00,WeatherDisplay:10.37,2013-01-25 18:12:00,
2013-01-25 13:17:00,21.9,10.1,30.00,ESE,112,2.3,2.3,60,0.00,CLR,CLR,0.00,WeatherDisplay:10.37,2013-01-25 18:17:00,
2013-01-25 13:22:00,21.9,10.1,29.99,NNE,22,2.3,2.3,60,0.00,CLR,CLR,0.00,WeatherDisplay:10.37,2013-01-25 18:22:00,
2013-01-25 13:27:00,22.1,10.3,29.99,ESE,112,1.6,1.6,60,0.00,CLR,CLR,0.00,WeatherDisplay:10.37,2013-01-25 18:27:00,
2013-01-25 13:33:00,22.3,10.5,29.98,East,90,1.6,1.6,60,0.00,CLR,CLR,0.00,WeatherDisplay:10.37,2013-01-25 18:33:00,
2013-01-25 13:38:00,22.6,10.8,29.98,North,0,2.3,2.3,60,0.00,CLR,CLR,0.00,WeatherDisplay:10.37,2013-01-25 18:38:00,
2013-01-25 13:43:00,22.8,10.6,29.97,ESE,112,1.2,0.0,59,0.00,CLR,CLR,0.00,WeatherDisplay:10.37,2013-01-25 18:43:00,
2013-01-25 13:48:00,23.2,11.0,29.97,ESE,112,4.6,4.6,59,0.00,CLR,CLR,0.00,WeatherDisplay:10.37,2013-01-25 18:48:00,
2013-01-25 13:54:00,23.5,10.9,29.97,NNE,22,6.9,6.9,58,0.00,CLR,CLR,0.00,WeatherDisplay:10.37,2013-01-25 18:54:00,
2013-01-25 13:59:00,23.7,11.1,29.97,ESE,112,1.2,0.0,58,0.00,CLR,CLR,0.00,WeatherDisplay:10.37,2013-01-25 18:59:00,
2013-01-25 14:04:00,23.9,11.3,29.97,SE,135,0.0,0.0,58,0.00,CLR,CLR,0.00,WeatherDisplay:10.37,2013-01-25 19:04:00,
2013-01-25 14:09:00,24.1,11.8,29.97,NE,45,4.6,4.6,59,0.00,CLR,CLR,0.00,WeatherDisplay:10.37,2013-01-25 19:09:00,
2013-01-25 14:15:00,23.9,12.0,29.97,East,90,12.7,12.7,60,0.00,CLR,CLR,0.00,WeatherDisplay:10.37,2013-01-25 19:15:00,
2013-01-25 14:20:00,23.5,12.4,29.97,ESE,112,4.6,4.6,62,0.00,CLR,CLR,0.00,WeatherDisplay:10.37,2013-01-25 19:20:00,
2013-01-25 14:25:00,23.4,13.0,29.97,SSE,158,5.8,5.8,64,0.00,CLR,CLR,0.00,WeatherDisplay:10.37,2013-01-25 19:25:00,
2013-01-25 14:30:00,23.2,13.1,29.97,SE,135,5.8,5.8,65,0.00,CLR,CLR,0.00,WeatherDisplay:10.37,2013-01-25 19:30:00,
2013-01-25 14:35:00,23.2,13.8,29.97,ENE,68,3.5,3.5,67,0.00,CLR,CLR,0.00,WeatherDisplay:10.37,2013-01-25 19:35:00,
2013-01-25 14:40:00,23.0,13.7,29.96,SE,135,3.5,3.5,67,0.00,CLR,CLR,0.00,WeatherDisplay:10.37,2013-01-25 19:40:00,
2013-01-25 14:46:00,23.0,14.0,29.96,East,90,3.5,3.5,68,0.00,CLR,CLR,0.00,WeatherDisplay:10.37,2013-01-25 19:46:00,
2013-01-25 14:51:00,23.0,14.3,29.95,SE,135,5.8,0.0,69,0.00,CLR,CLR,0.00,WeatherDisplay:10.37,2013-01-25 19:51:00,
2013-01-25 14:56:00,23.0,14.7,29.96,ESE,112,0.0,0.0,70,0.00,CLR,CLR,0.00,WeatherDisplay:10.37,2013-01-25 19:56:00,
2013-01-25 15:01:00,22.8,14.5,29.95,ENE,68,1.2,1.2,70,0.00,CLR,CLR,0.00,WeatherDisplay:10.37,2013-01-25 20:01:00,
2013-01-25 15:06:00,22.8,14.8,29.95,ESE,112,0.0,0.0,71,0.00,CLR,CLR,0.00,WeatherDisplay:10.37,2013-01-25 20:06:00,
2013-01-25 15:11:00,22.8,14.8,29.95,SE,135,0.0,0.0,71,0.00,CLR,CLR,0.00,WeatherDisplay:10.37,2013-01-25 20:11:00,
2013-01-25 15:16:00,22.8,15.1,29.95,NNE,22,0.0,0.0,72,0.00,CLR,CLR,0.00,WeatherDisplay:10.37,2013-01-25 20:16:00,
2013-01-25 15:21:00,22.8,15.1,29.95,ESE,112,3.5,3.5,72,0.00,CLR,CLR,0.00,WeatherDisplay:10.37,2013-01-25 20:21:00,
2013-01-25 15:27:00,22.6,15.0,29.94,ESE,112,3.5,3.5,72,0.00,CLR,CLR,0.00,WeatherDisplay:10.37,2013-01-25 20:27:00,
2013-01-25 15:32:00,22.3,14.6,29.94,ESE,112,1.2,1.2,72,0.00,CLR,CLR,0.00,WeatherDisplay:10.37,2013-01-25 20:32:00,
2013-01-25 15:37:00,21.9,14.6,29.94,ESE,112,0.0,0.0,73,0.00,CLR,CLR,0.00,WeatherDisplay:10.37,2013-01-25 20:37:00,
2013-01-25 15:42:00,21.7,14.4,29.94,ESE,112,0.0,0.0,73,0.00,CLR,CLR,0.00,WeatherDisplay:10.37,2013-01-25 20:42:00,
2013-01-25 15:47:00,21.7,14.7,29.94,SE,135,1.3,1.3,74,0.00,CLR,CLR,0.00,WeatherDisplay:10.37,2013-01-25 20:47:00,
2013-01-25 15:52:00,21.7,14.7,29.93,ESE,112,1.2,1.2,74,0.00,CLR,CLR,0.00,WeatherDisplay:10.37,2013-01-25 20:52:00,
2013-01-25 15:57:00,21.9,14.9,29.92,SE,135,3.6,3.6,74,0.00,CLR,CLR,0.00,WeatherDisplay:10.37,2013-01-25 20:57:00,
2013-01-25 16:03:00,21.9,15.2,29.92,NE,45,5.8,5.8,75,0.00,CLR,CLR,0.00,WeatherDisplay:10.37,2013-01-25 21:03:00,
2013-01-25 16:08:00,21.9,15.2,29.93,ESE,112,3.5,3.5,75,0.00,CLR,CLR,0.00,WeatherDisplay:10.37,2013-01-25 21:08:00,
2013-01-25 16:13:00,21.9,15.2,29.92,ESE,112,2.3,0.0,75,0.00,CLR,CLR,0.00,WeatherDisplay:10.37,2013-01-25 21:13:00,
2013-01-25 16:18:00,21.9,15.2,29.92,ENE,68,0.0,0.0,75,0.00,CLR,CLR,0.00,WeatherDisplay:10.37,2013-01-25 21:18:00,
2013-01-25 16:23:00,21.7,15.0,29.91,ESE,112,3.5,3.5,75,0.00,CLR,CLR,0.00,WeatherDisplay:10.37,2013-01-25 21:23:00,
2013-01-25 16:28:00,21.9,15.2,29.91,ESE,112,2.3,2.3,75,0.00,CLR,CLR,0.00,WeatherDisplay:10.37,2013-01-25 21:28:00,
2013-01-25 16:34:00,21.7,15.3,29.91,ENE,68,1.2,0.0,76,0.00,CLR,CLR,0.00,WeatherDisplay:10.37,2013-01-25 21:34:00,
2013-01-25 16:39:00,21.9,15.5,29.91,East,90,2.3,0.0,76,0.00,CLR,CLR,0.00,WeatherDisplay:10.37,2013-01-25 21:39:00,
2013-01-25 16:44:00,21.9,15.5,29.91,ESE,112,0.0,0.0,76,0.00,CLR,CLR,0.00,WeatherDisplay:10.37,2013-01-25 21:44:00,
2013-01-25 16:49:00,21.7,15.3,29.91,ESE,112,3.5,3.5,76,0.00,CLR,CLR,0.00,WeatherDisplay:10.37,2013-01-25 21:49:00,
2013-01-25 16:54:00,21.6,15.2,29.90,NE,45,0.0,0.0,76,0.00,CLR,CLR,0.00,WeatherDisplay:10.37,2013-01-25 21:54:00,
2013-01-25 16:59:00,21.6,15.2,29.90,NNE,22,0.0,0.0,76,0.00,CLR,CLR,0.00,WeatherDisplay:10.37,2013-01-25 21:59:00,
2013-01-25 17:04:00,21.6,15.2,29.90,ESE,112,0.0,0.0,76,0.00,CLR,CLR,0.00,WeatherDisplay:10.37,2013-01-25 22:04:00,
2013-01-25 17:09:00,21.7,15.6,29.90,ESE,112,3.5,0.0,77,0.00,CLR,CLR,0.00,WeatherDisplay:10.37,2013-01-25 22:09:00,
2013-01-25 17:15:00,21.7,15.6,29.89,ESE,112,1.2,1.2,77,0.00,CLR,CLR,0.00,WeatherDisplay:10.37,2013-01-25 22:15:00,
2013-01-25 17:20:00,21.6,15.5,29.89,ESE,112,0.0,0.0,77,0.00,CLR,CLR,0.00,WeatherDisplay:10.37,2013-01-25 22:20:00,
2013-01-25 17:25:00,21.6,15.5,29.89,ESE,112,3.5,3.5,77,0.00,CLR,CLR,0.00,WeatherDisplay:10.37,2013-01-25 22:25:00,
2013-01-25 17:30:00,21.4,15.3,29.89,SE,135,0.0,0.0,77,0.00,CLR,CLR,0.00,WeatherDisplay:10.37,2013-01-25 22:30:00,
2013-01-25 17:35:00,21.4,15.3,29.89,ENE,68,1.2,1.2,77,0.00,CLR,CLR,0.00,WeatherDisplay:10.37,2013-01-25 22:35:00,
2013-01-25 17:41:00,21.4,15.3,29.90,SE,135,0.0,0.4,77,0.00,CLR,CLR,0.00,WeatherDisplay:10.37,2013-01-25 22:41:00,
2013-01-25 17:46:00,21.2,15.1,29.89,ESE,112,0.0,0.0,77,0.00,CLR,CLR,0.00,WeatherDisplay:10.37,2013-01-25 22:46:00,
2013-01-25 17:51:00,21.0,14.9,29.89,ESE,112,0.0,0.0,77,0.00,CLR,CLR,0.00,WeatherDisplay:10.37,2013-01-25 22:51:00,
2013-01-25 17:56:00,21.0,14.9,29.89,NNE,22,0.0,0.0,77,0.00,CLR,CLR,0.00,WeatherDisplay:10.37,2013-01-25 22:56:00,
2013-01-25 18:01:00,20.8,14.8,29.89,ESE,112,0.0,0.0,77,0.00,CLR,CLR,0.00,WeatherDisplay:10.37,2013-01-25 23:01:00,
2013-01-25 18:06:00,20.8,14.8,29.89,ESE,112,0.0,0.0,77,0.00,CLR,CLR,0.00,WeatherDisplay:10.37,2013-01-25 23:06:00,
2013-01-25 18:11:00,20.8,15.1,29.89,SE,135,0.0,0.0,78,0.00,CLR,CLR,0.00,WeatherDisplay:10.37,2013-01-25 23:11:00,
2013-01-25 18:17:00,21.0,15.2,29.89,ESE,112,0.0,0.0,78,0.00,CLR,CLR,0.00,WeatherDisplay:10.37,2013-01-25 23:17:00,
2013-01-25 18:22:00,21.0,15.2,29.89,ESE,112,0.0,0.0,78,0.00,CLR,CLR,0.00,WeatherDisplay:10.37,2013-01-25 23:22:00,
2013-01-25 18:27:00,21.0,15.2,29.89,East,90,0.0,0.0,78,0.00,CLR,CLR,0.00,WeatherDisplay:10.37,2013-01-25 23:27:00,
2013-01-25 18:32:00,21.0,15.2,29.89,East,90,0.0,0.0,78,0.00,CLR,CLR,0.00,WeatherDisplay:10.37,2013-01-25 23:32:00,
2013-01-25 18:37:00,21.0,15.2,29.89,NE,45,0.0,0.0,78,0.00,CLR,CLR,0.00,WeatherDisplay:10.37,2013-01-25 23:37:00,
2013-01-25 18:42:00,20.8,15.1,29.89,NE,45,0.0,0.0,78,0.00,CLR,CLR,0.00,WeatherDisplay:10.37,2013-01-25 23:42:00,
2013-01-25 18:48:00,20.8,15.1,29.89,NE,45,0.0,0.0,78,0.00,CLR,CLR,0.00,WeatherDisplay:10.37,2013-01-25 23:48:00,
2013-01-25 18:53:00,20.8,15.1,29.89,NE,45,0.0,0.0,78,0.00,CLR,CLR,0.00,WeatherDisplay:10.37,2013-01-25 23:53:00,
2013-01-25 18:58:00,20.5,14.7,29.88,NE,45,0.0,0.0,78,0.00,CLR,CLR,0.00,WeatherDisplay:10.37,2013-01-25 23:58:00,
2013-01-25 19:03:00,20.5,14.7,29.88,NNE,22,0.0,0.0,78,0.00,CLR,CLR,0.00,WeatherDisplay:10.37,2013-01-26 00:03:00,
2013-01-25 19:08:00,20.5,14.7,29.88,NNE,22,0.0,0.0,78,0.00,CLR,CLR,0.00,WeatherDisplay:10.37,2013-01-26 00:08:00,
2013-01-25 19:13:00,20.3,14.5,29.88,NNE,22,0.0,0.0,78,0.00,CLR,CLR,0.00,WeatherDisplay:10.37,2013-01-26 00:13:00,
2013-01-25 19:18:00,20.1,14.4,29.88,NNE,22,0.0,0.0,78,0.00,CLR,CLR,0.00,WeatherDisplay:10.37,2013-01-26 00:18:00,
2013-01-25 19:23:00,20.1,14.4,29.88,NNE,22,0.0,0.0,78,0.00,CLR,CLR,0.00,WeatherDisplay:10.37,2013-01-26 00:23:00,
2013-01-25 19:29:00,20.1,14.4,29.88,NNE,22,0.0,0.0,78,0.00,CLR,CLR,0.00,WeatherDisplay:10.37,2013-01-26 00:29:00,
2013-01-25 19:34:00,20.1,14.4,29.88,NNE,22,0.0,0.0,78,0.00,CLR,CLR,0.00,WeatherDisplay:10.37,2013-01-26 00:34:00,
2013-01-25 19:39:00,20.1,14.7,29.88,NNE,22,0.0,0.0,79,0.00,CLR,CLR,0.00,WeatherDisplay:10.37,2013-01-26 00:39:00,
2013-01-25 19:44:00,20.1,14.7,29.88,NNE,22,0.0,0.0,79,0.00,CLR,CLR,0.00,WeatherDisplay:10.37,2013-01-26 00:44:00,
2013-01-25 19:49:00,20.1,14.7,29.87,NNE,22,0.0,0.0,79,0.00,CLR,CLR,0.00,WeatherDisplay:10.37,2013-01-26 00:49:00,
2013-01-25 19:55:00,19.9,14.5,29.87,NNE,22,0.0,0.0,79,0.00,CLR,CLR,0.00,WeatherDisplay:10.37,2013-01-26 00:55:00,
2013-01-25 20:00:00,19.9,14.5,29.87,NNE,22,0.0,0.0,79,0.00,CLR,CLR,0.00,WeatherDisplay:10.37,2013-01-26 01:00:00,
2013-01-25 20:05:00,19.9,14.5,29.87,North,0,0.0,0.0,79,0.00,CLR,CLR,0.00,WeatherDisplay:10.37,2013-01-26 01:05:00,
2013-01-25 20:10:00,19.9,14.5,29.87,North,0,0.0,0.0,79,0.00,CLR,CLR,0.00,WeatherDisplay:10.37,2013-01-26 01:10:00,
2013-01-25 20:15:00,19.9,14.5,29.87,North,0,0.0,0.0,79,0.00,CLR,CLR,0.00,WeatherDisplay:10.37,2013-01-26 01:15:00,
2013-01-25 20:20:00,19.9,14.5,29.87,North,0,0.0,0.0,79,0.00,CLR,CLR,0.00,WeatherDisplay:10.37,2013-01-26 01:20:00,
2013-01-25 20:25:00,19.9,14.5,29.86,NE,45,0.0,0.0,79,0.00,CLR,CLR,0.00,WeatherDisplay:10.37,2013-01-26 01:25:00,
2013-01-25 20:31:00,20.1,14.7,29.86,NE,45,0.0,0.0,79,0.00,CLR,CLR,0.00,WeatherDisplay:10.37,2013-01-26 01:31:00,
2013-01-25 20:36:00,20.5,15.0,29.86,NE,45,0.0,0.0,79,0.00,CLR,CLR,0.00,WeatherDisplay:10.37,2013-01-26 01:36:00,
2013-01-25 20:41:00,20.5,15.0,29.86,NE,45,0.0,0.0,79,0.00,CLR,CLR,0.00,WeatherDisplay:10.37,2013-01-26 01:41:00,
2013-01-25 20:46:00,20.5,15.0,29.86,NE,45,0.0,0.0,79,0.00,CLR,CLR,0.00,WeatherDisplay:10.37,2013-01-26 01:46:00,
2013-01-25 20:51:00,20.5,15.0,29.86,NE,45,0.0,0.0,79,0.00,CLR,CLR,0.00,WeatherDisplay:10.37,2013-01-26 01:51:00,
2013-01-25 20:56:00,20.5,15.0,29.86,NE,45,0.0,0.0,79,0.00,CLR,CLR,0.00,WeatherDisplay:10.37,2013-01-26 01:56:00,
2013-01-25 21:02:00,20.5,15.0,29.86,NE,45,0.0,0.0,79,0.00,CLR,CLR,0.00,WeatherDisplay:10.37,2013-01-26 02:02:00,
2013-01-25 21:07:00,20.5,15.3,29.86,NE,45,0.0,0.0,80,0.00,CLR,CLR,0.00,WeatherDisplay:10.37,2013-01-26 02:07:00,
2013-01-25 21:12:00,20.5,15.3,29.86,NE,45,0.0,0.0,80,0.00,CLR,CLR,0.00,WeatherDisplay:10.37,2013-01-26 02:12:00,
2013-01-25 21:17:00,20.5,15.3,29.86,NE,45,0.0,0.0,80,0.00,CLR,CLR,0.00,WeatherDisplay:10.37,2013-01-26 02:17:00,
2013-01-25 21:22:00,20.5,15.3,29.86,NE,45,0.0,0.0,80,0.00,CLR,CLR,0.00,WeatherDisplay:10.37,2013-01-26 02:22:00,
2013-01-25 21:28:00,20.5,15.3,29.86,NE,45,0.0,0.0,80,0.00,CLR,CLR,0.00,WeatherDisplay:10.37,2013-01-26 02:28:00,
2013-01-25 21:33:00,20.5,15.3,29.86,NE,45,0.0,0.0,80,0.00,CLR,CLR,0.00,WeatherDisplay:10.37,2013-01-26 02:33:00,
2013-01-25 21:38:00,20.5,15.3,29.85,NE,45,0.0,0.0,80,0.00,CLR,CLR,0.00,WeatherDisplay:10.37,2013-01-26 02:38:00,
2013-01-25 21:44:00,20.5,15.3,29.86,NE,45,0.0,0.0,80,0.00,CLR,CLR,0.00,WeatherDisplay:10.37,2013-01-26 02:44:00,
2013-01-25 21:49:00,20.5,15.3,29.86,NE,45,0.0,0.0,80,0.00,CLR,CLR,0.00,WeatherDisplay:10.37,2013-01-26 02:49:00,
2013-01-25 21:54:00,20.5,15.3,29.86,NE,45,0.0,0.0,80,0.00,CLR,CLR,0.00,WeatherDisplay:10.37,2013-01-26 02:54:00,
2013-01-25 22:00:00,20.8,15.6,29.86,NE,45,0.0,0.0,80,0.00,CLR,CLR,0.00,WeatherDisplay:10.37,2013-01-26 03:00:00,
2013-01-25 22:05:00,20.8,15.6,29.85,NE,45,0.0,0.0,80,0.00,CLR,CLR,0.00,WeatherDisplay:10.37,2013-01-26 03:05:00,
2013-01-25 22:10:00,20.8,15.6,29.86,NE,45,0.0,0.0,80,0.00,CLR,CLR,0.00,WeatherDisplay:10.37,2013-01-26 03:10:00,
2013-01-25 22:15:00,20.8,15.6,29.86,NE,45,0.0,0.0,80,0.00,CLR,CLR,0.00,WeatherDisplay:10.37,2013-01-26 03:15:00,
2013-01-25 22:20:00,20.8,15.6,29.85,NE,45,0.0,0.0,80,0.00,CLR,CLR,0.00,WeatherDisplay:10.37,2013-01-26 03:20:00,
2013-01-25 22:26:00,20.8,15.6,29.86,NE,45,0.0,0.0,80,0.00,CLR,CLR,0.00,WeatherDisplay:10.37,2013-01-26 03:26:00,
2013-01-25 22:31:00,20.8,15.6,29.85,NE,45,0.0,0.0,80,0.00,CLR,CLR,0.00,WeatherDisplay:10.37,2013-01-26 03:31:00,
2013-01-25 22:36:00,20.7,15.5,29.86,NE,45,0.0,0.0,80,0.00,CLR,CLR,0.00,WeatherDisplay:10.37,2013-01-26 03:36:00,
2013-01-25 22:41:00,20.7,15.5,29.86,NE,45,0.0,0.0,80,0.00,CLR,CLR,0.00,WeatherDisplay:10.37,2013-01-26 03:41:00,
2013-01-25 22:47:00,20.7,15.5,29.86,NE,45,0.0,0.0,80,0.00,CLR,CLR,0.00,WeatherDisplay:10.37,2013-01-26 03:47:00,
2013-01-25 22:52:00,20.7,15.5,29.85,NE,45,0.0,0.0,80,0.00,CLR,CLR,0.00,WeatherDisplay:10.37,2013-01-26 03:52:00,
2013-01-25 22:57:00,20.7,15.5,29.86,NE,45,0.0,0.0,80,0.00,CLR,CLR,0.00,WeatherDisplay:10.37,2013-01-26 03:57:00,
2013-01-25 23:02:00,20.7,15.5,29.86,NE,45,0.0,0.0,80,0.00,CLR,CLR,0.00,WeatherDisplay:10.37,2013-01-26 04:02:00,
2013-01-25 23:07:00,20.8,15.6,29.86,NE,45,0.0,0.0,80,0.00,CLR,CLR,0.00,WeatherDisplay:10.37,2013-01-26 04:07:00,
2013-01-25 23:13:00,20.8,15.9,29.86,NE,45,0.0,0.0,81,0.00,CLR,CLR,0.00,WeatherDisplay:10.37,2013-01-26 04:13:00,
2013-01-25 23:18:00,21.0,16.1,29.86,NNE,22,0.0,0.0,81,0.00,CLR,CLR,0.00,WeatherDisplay:10.37,2013-01-26 04:18:00,
2013-01-25 23:23:00,20.8,15.9,29.87,WNW,292,0.0,0.0,81,0.00,CLR,CLR,0.00,WeatherDisplay:10.37,2013-01-26 04:23:00,
2013-01-25 23:28:00,20.8,15.9,29.87,WNW,292,0.0,0.0,81,0.00,CLR,CLR,0.00,WeatherDisplay:10.37,2013-01-26 04:28:00,
2013-01-25 23:33:00,20.7,15.8,29.87,WNW,292,0.0,0.0,81,0.00,CLR,CLR,0.00,WeatherDisplay:10.37,2013-01-26 04:33:00,
2013-01-25 23:38:00,20.5,15.6,29.87,WNW,292,0.0,0.0,81,0.00,CLR,CLR,0.00,WeatherDisplay:10.37,2013-01-26 04:38:00,
2013-01-25 23:44:00,20.5,15.6,29.87,WNW,292,0.0,0.0,81,0.00,CLR,CLR,0.00,WeatherDisplay:10.37,2013-01-26 04:44:00,
2013-01-25 23:49:00,20.5,15.6,29.87,WNW,292,0.0,0.0,81,0.00,CLR,CLR,0.00,WeatherDisplay:10.37,2013-01-26 04:49:00,
2013-01-25 23:54:00,20.5,15.6,29.87,WNW,292,0.0,0.0,81,0.00,CLR,CLR,0.00,WeatherDisplay:10.37,2013-01-26 04:54:00,
2013-01-25 23:59:00,20.7,15.8,29.87,WNW,292,0.0,0.0,81,0.00,CLR,CLR,0.00,WeatherDisplay:10.37,2013-01-26 04:59:00,